Time;durP1;ratioP1;P1;durP2;ratioP2;P2;SDS_P1;SDS_P2;PMS_P1;PMS_P2;Temp;Humidity;BMP_temperature;BMP_pressure;BME280_temperature;BME280_humidity;BME280_pressure;Samples;Min_cycle;Max_cycle;Signal;HPM_P1;HPM_P2
2021/05/21 00:13:54;;;;;;;;;;;;;;;;;;;;;
2021/05/21 00:16:33;;;;;;;3.97;1.25;;;;;;;12.43;75.50;97332.13;4979560;28;20050;-77
2021/05/21 00:19:06;;;;;;;5.70;1.23;;;;;;;11.94;77.62;97326.00;4955871;28;20106;-76
2021/05/21 00:21:37;;;;;;;7.85;1.08;;;;;;;11.87;78.44;97319.34;4953839;28;20041;-77
2021/05/21 00:24:09;;;;;;;5.07;1.17;;;;;;;12.16;76.99;97326.56;4937788;28;20133;-79
2021/05/21 00:26:44;;;;;;;5.07;1.10;;;;;;;11.84;78.46;97319.53;4947897;28;20508;-77
2021/05/21 00:29:13;;;;;;;4.38;1.50;;;;;;;11.80;78.52;97316.19;4946260;28;20042;-78
2021/05/21 00:33:17;;;;;;;5.38;1.23;;;;;;;12.00;77.62;97308.19;4480778;27;15146406;-78
2021/05/21 00:35:53;;;;;;;5.28;1.15;;;;;;;12.14;77.39;97300.47;5005471;28;20079;-78
2021/05/21 00:38:29;;;;;;;3.22;0.90;;;;;;;11.76;78.77;97299.81;4987071;28;21622;-78
2021/05/21 00:41:26;;;;;;;4.65;1.30;;;;;;;11.89;78.40;97292.22;4874290;28;20048;-78
2021/05/21 00:44:12;;;;;;;5.60;1.40;;;;;;;12.02;78.00;97288.03;4946873;28;20634;-78
2021/05/21 00:46:47;;;;;;;3.08;0.90;;;;;;;12.00;78.10;97274.16;4948011;28;20049;-78
2021/05/21 00:49:23;;;;;;;5.50;1.30;;;;;;;11.99;78.00;97275.09;4907836;28;20046;-77
2021/05/21 00:52:06;;;;;;;5.57;1.20;;;;;;;11.68;79.01;97264.47;4950453;28;20062;-78
2021/05/21 00:58:44;;;;;;;4.22;1.40;;;;;;;11.98;78.36;97270.81;4862434;28;20147;-78
2021/05/21 01:01:37;;;;;;;4.00;0.65;;;;;;;11.75;78.54;97263.25;4936643;28;22642;-78
2021/05/21 01:06:23;;;;;;;3.90;1.05;;;;;;;11.79;77.99;97241.28;4867517;27;2030899;-78
2021/05/21 01:09:32;;;;;;;6.32;0.98;;;;;;;12.21;76.79;97244.28;4883295;28;20146;-78
2021/05/21 01:12:48;;;;;;;1.88;0.90;;;;;;;12.29;75.51;97232.53;4882579;28;20072;-78
2021/05/21 01:15:25;;;;;;;6.25;1.00;;;;;;;12.09;76.70;97239.66;4918144;28;20207;-78
2021/05/21 01:17:52;;;;;;;2.63;0.80;;;;;;;11.98;77.21;97236.78;4900080;28;20047;-79
2021/05/21 01:20:29;;;;;;;2.60;0.80;;;;;;;11.31;78.43;97229.72;4904487;28;20066;-77
2021/05/21 01:23:06;;;;;;;2.75;0.85;;;;;;;11.78;78.12;97231.75;4928998;28;20047;-78
2021/05/21 01:26:03;;;;;;;4.47;0.70;;;;;;;12.12;77.19;97215.97;4923834;28;20378;-78
2021/05/21 01:28:39;;;;;;;5.65;0.82;;;;;;;12.49;75.88;97219.22;4950462;28;20161;-79
2021/05/21 01:31:14;;;;;;;5.18;0.85;;;;;;;11.93;76.98;97210.03;4937107;28;20133;-78
2021/05/21 01:33:50;;;;;;;4.35;0.80;;;;;;;11.74;78.32;97193.59;4942322;28;20070;-79
2021/05/21 01:38:29;;;;;;;7.65;1.02;;;;;;;11.78;78.52;97189.88;5077674;27;20460;-78
2021/05/21 01:40:59;;;;;;;3.07;0.60;;;;;;;11.76;78.46;97192.56;5054429;28;20059;-78
2021/05/21 01:43:27;;;;;;;2.33;0.63;;;;;;;11.92;77.30;97186.53;5041962;28;20290;-78
2021/05/21 01:45:54;;;;;;;3.85;0.77;;;;;;;12.20;76.64;97174.53;5040271;28;20100;-78
2021/05/21 01:48:25;;;;;;;6.07;1.30;;;;;;;11.96;77.09;97183.69;5042745;28;20044;-78
2021/05/21 01:50:52;;;;;;;3.20;0.95;;;;;;;11.94;76.95;97182.09;5032001;28;20191;-78
2021/05/21 01:53:19;;;;;;;6.13;0.70;;;;;;;12.15;76.71;97187.00;5022010;28;20061;-78
2021/05/21 01:55:50;;;;;;;2.70;0.60;;;;;;;12.26;75.77;97189.06;5017652;28;20048;-78
2021/05/21 01:58:17;;;;;;;5.75;1.25;;;;;;;11.93;76.74;97175.16;5024607;28;20081;-78
2021/05/21 02:00:48;;;;;;;2.90;0.57;;;;;;;12.37;75.80;97184.09;4998245;28;20053;-78
2021/05/21 02:03:15;;;;;;;2.03;0.52;;;;;;;12.24;76.27;97176.03;5018358;28;20123;-78
2021/05/21 02:05:42;;;;;;;4.43;0.75;;;;;;;12.19;76.04;97161.50;5012476;28;20038;-78
2021/05/21 02:08:09;;;;;;;3.67;0.93;;;;;;;12.47;74.83;97160.88;5021048;28;20062;-78
2021/05/21 02:10:37;;;;;;;4.63;0.90;;;;;;;12.11;76.18;97161.09;5016613;28;20045;-78
2021/05/21 02:13:06;;;;;;;2.75;0.73;;;;;;;12.39;75.46;97161.28;5029017;28;20046;-78
2021/05/21 02:15:33;;;;;;;1.90;0.40;;;;;;;11.96;76.97;97151.44;5036056;28;20055;-78
2021/05/21 02:18:00;;;;;;;2.20;0.60;;;;;;;12.22;76.06;97149.13;5009585;28;20129;-78
2021/05/21 02:25:06;;;;;;;7.15;0.88;;;;;;;11.87;77.90;97131.00;5010293;28;20432;-78
2021/05/21 02:28:37;;;;;;;6.25;0.88;;;;;;;12.12;77.49;97139.22;5072214;28;20386;-77
2021/05/21 02:31:06;;;;;;;3.55;0.70;;;;;;;12.16;76.70;97140.75;5067477;28;20054;-78
2021/05/21 02:35:28;;;;;;;4.55;1.73;;;;;;;12.06;77.50;97131.69;4907233;27;3725523;-78
2021/05/21 02:37:58;;;;;;;4.03;0.50;;;;;;;12.45;76.44;97126.06;5026256;28;20048;-78
2021/05/21 02:40:27;;;;;;;3.97;0.82;;;;;;;12.11;76.54;97130.53;5066246;28;20071;-78
2021/05/21 02:42:55;;;;;;;9.10;1.40;;;;;;;12.33;77.03;97116.25;5042578;28;20060;-77
2021/05/21 02:45:22;;;;;;;6.00;1.00;;;;;;;12.30;77.25;97121.66;5038285;28;20463;-77
2021/05/21 02:47:50;;;;;;;5.80;1.23;;;;;;;11.88;78.25;97123.09;5038970;28;20557;-77
2021/05/21 02:51:07;;;;;;;3.50;0.70;;;;;;;12.38;77.43;97115.06;4982773;27;20655;-77
2021/05/21 02:54:15;;;;;;;4.35;0.95;;;;;;;12.13;77.50;97106.91;4978766;28;20041;-78
2021/05/21 02:56:56;;;;;;;4.15;0.85;;;;;;;12.17;77.76;97108.41;5029494;28;20064;-77
2021/05/21 02:59:28;;;;;;;2.22;0.60;;;;;;;11.75;79.27;97098.47;5031141;28;20044;-77
2021/05/21 03:02:04;;;;;;;5.95;0.52;;;;;;;11.77;78.64;97102.72;5054500;28;20047;-77
2021/05/21 03:04:37;;;;;;;2.00;0.80;;;;;;;12.39;77.21;97089.72;5028107;28;20079;-77
2021/05/21 03:07:05;;;;;;;2.92;0.52;;;;;;;12.45;75.72;97092.00;5062564;28;20442;-77
2021/05/21 03:10:09;;;;;;;3.10;0.68;;;;;;;11.94;78.54;97077.44;4789132;27;6632548;-78
2021/05/21 03:12:36;;;;;;;2.95;0.77;;;;;;;11.90;78.24;97079.34;5011615;28;20496;-78
2021/05/21 03:15:04;;;;;;;6.03;0.75;;;;;;;11.96;77.84;97078.19;4983995;28;20052;-78
2021/05/21 03:17:32;;;;;;;3.97;0.98;;;;;;;12.14;78.00;97072.78;5041232;28;20046;-78
2021/05/21 03:20:00;;;;;;;2.33;0.57;;;;;;;12.41;76.13;97062.56;4984224;28;20092;-76
2021/05/21 03:22:27;;;;;;;6.15;0.63;;;;;;;11.71;78.55;97055.09;5050547;28;20140;-77
2021/05/21 03:26:00;;;;;;;4.47;0.88;;;;;;;11.99;77.11;97062.34;4969121;28;20187;-77
2021/05/21 03:28:31;;;;;;;3.47;0.70;;;;;;;12.02;77.35;97047.31;4929989;28;20085;-77
2021/05/21 03:36:23;;;;;;;3.03;0.70;;;;;;;11.82;77.16;97044.06;4694035;28;9477900;-77
2021/05/21 03:38:51;;;;;;;3.25;0.65;;;;;;;11.85;77.58;97036.06;4991135;28;20644;-76
2021/05/21 03:41:18;;;;;;;10.32;0.88;;;;;;;11.89;77.83;97025.38;4986903;28;20042;-77
2021/05/21 03:43:45;;;;;;;2.38;0.52;;;;;;;12.05;76.87;97027.94;4979261;28;20093;-77
2021/05/21 03:46:12;;;;;;;6.30;1.27;;;;;;;12.28;76.22;97021.44;4977922;28;20174;-77
2021/05/21 03:48:50;;;;;;;6.00;0.80;;;;;;;11.78;78.46;97027.72;5014335;28;20053;-77
2021/05/21 03:51:28;;;;;;;3.58;0.75;;;;;;;11.88;78.52;97026.28;4990908;28;20054;-78
2021/05/21 03:53:55;;;;;;;4.57;1.27;;;;;;;11.47;79.71;97015.41;4989836;28;20046;-77
2021/05/21 03:56:23;;;;;;;4.55;0.77;;;;;;;11.87;77.13;97013.28;4984576;28;20054;-77
2021/05/21 03:58:51;;;;;;;3.75;0.80;;;;;;;11.60;78.56;97010.38;4984697;28;20408;-77
2021/05/21 04:01:25;;;;;;;3.35;0.85;;;;;;;11.64;79.47;97004.06;4984206;28;20504;-78
2021/05/21 04:03:56;;;;;;;5.75;1.00;;;;;;;11.71;78.12;97010.63;4992392;28;20140;-78
2021/05/21 04:06:29;;;;;;;5.05;0.80;;;;;;;12.51;75.46;97010.50;4975391;28;20104;-77
2021/05/21 04:08:56;;;;;;;9.20;1.00;;;;;;;12.19;75.87;97017.56;4985552;28;20038;-76
2021/05/21 04:11:23;;;;;;;5.70;0.90;;;;;;;11.84;76.58;97010.84;5003112;28;20046;-77
2021/05/21 04:13:51;;;;;;;3.22;1.00;;;;;;;12.11;76.37;97004.91;5001576;28;20115;-76
2021/05/21 04:16:18;;;;;;;5.72;0.93;;;;;;;12.50;75.21;97006.19;5016127;28;20046;-77
2021/05/21 04:21:12;;;;;;;3.25;0.90;;;;;;;11.94;76.87;96997.16;4753639;27;7568696;-79
2021/05/21 04:23:40;;;;;;;10.32;1.08;;;;;;;11.97;77.04;96996.16;5034128;28;20041;-77
2021/05/21 04:26:10;;;;;;;10.18;1.08;;;;;;;11.64;78.24;96988.38;4995179;28;20072;-78
2021/05/21 04:28:38;;;;;;;6.38;1.25;;;;;;;12.15;76.24;96995.94;4980769;28;20045;-77
2021/05/21 04:31:06;;;;;;;6.78;0.98;;;;;;;12.29;76.40;96979.47;4970908;28;20050;-77
2021/05/21 04:33:40;;;;;;;4.18;0.90;;;;;;;11.84;77.64;96988.16;5023624;28;20064;-76
2021/05/21 04:36:18;;;;;;;11.27;1.48;;;;;;;12.30;76.09;96977.69;4989428;28;20489;-77
2021/05/21 04:38:47;;;;;;;8.25;0.90;;;;;;;11.86;76.87;96967.97;5005800;28;20097;-77
2021/05/21 04:41:15;;;;;;;5.63;1.05;;;;;;;11.96;76.65;96970.91;5019779;28;20041;-75
2021/05/21 04:43:44;;;;;;;3.70;0.70;;;;;;;11.91;76.24;96965.09;5019433;28;20069;-77
2021/05/21 04:46:11;;;;;;;4.60;1.10;;;;;;;11.91;76.60;96955.47;5023524;28;20042;-77
2021/05/21 04:48:39;;;;;;;5.22;1.30;;;;;;;11.77;77.31;96958.03;5021778;28;20065;-77
2021/05/21 04:51:06;;;;;;;4.97;1.00;;;;;;;12.17;76.08;96954.84;5018899;28;20168;-77
2021/05/21 04:53:33;;;;;;;4.55;1.08;;;;;;;11.96;77.35;96939.50;5021974;28;20050;-77
2021/05/21 04:56:01;;;;;;;14.63;1.60;;;;;;;11.96;76.36;96945.59;5008447;28;20050;-77
2021/05/21 04:58:28;;;;;;;5.13;0.90;;;;;;;12.23;75.32;96937.91;5004577;28;20188;-76
2021/05/21 05:00:55;;;;;;;6.57;1.35;;;;;;;12.11;75.74;96933.41;5001122;28;20057;-78
2021/05/21 05:03:23;;;;;;;7.13;0.60;;;;;;;12.11;74.92;96929.03;5023586;28;20050;-77
2021/05/21 05:05:50;;;;;;;5.68;1.00;;;;;;;11.82;77.08;96944.69;5004804;28;20053;-76
2021/05/21 05:08:17;;;;;;;5.55;1.10;;;;;;;11.93;76.46;96932.69;5019506;28;20057;-77
2021/05/21 05:10:44;;;;;;;5.78;0.98;;;;;;;12.03;76.46;96931.25;5020822;28;20172;-77
2021/05/21 05:13:12;;;;;;;6.85;0.77;;;;;;;11.66;77.22;96935.03;5021732;28;20080;-77
2021/05/21 05:15:39;;;;;;;5.63;1.00;;;;;;;12.20;75.88;96936.34;5004899;28;20049;-77
2021/05/21 05:18:07;;;;;;;5.53;1.17;;;;;;;12.07;76.29;96918.81;5020059;28;20053;-77
2021/05/21 05:20:35;;;;;;;5.15;1.23;;;;;;;11.96;77.09;96918.59;5020845;28;20050;-78
2021/05/21 05:23:04;;;;;;;5.07;1.10;;;;;;;11.77;77.33;96924.00;5007039;28;20166;-77
2021/05/21 05:25:34;;;;;;;9.50;1.50;;;;;;;11.75;78.43;96908.41;5004979;28;20375;-77
2021/05/21 05:28:05;;;;;;;7.18;1.20;;;;;;;11.68;78.72;96916.66;5014973;28;20140;-78
2021/05/21 05:30:34;;;;;;;7.43;1.33;;;;;;;11.79;79.35;96909.09;5005470;28;20057;-78
2021/05/21 05:33:01;;;;;;;4.80;0.80;;;;;;;11.48;79.27;96909.06;5006535;28;20050;-77
2021/05/21 05:35:29;;;;;;;6.07;0.93;;;;;;;11.79;78.65;96909.09;5012461;28;20136;-77
2021/05/21 05:37:59;;;;;;;5.50;1.02;;;;;;;11.74;78.85;96909.34;5009554;28;20221;-77
2021/05/21 05:40:30;;;;;;;3.20;0.95;;;;;;;12.14;77.32;96900.03;4982531;28;20045;-77
2021/05/21 05:42:57;;;;;;;6.72;1.30;;;;;;;11.86;77.94;96891.25;5007330;28;20128;-77
2021/05/21 05:45:24;;;;;;;8.80;0.82;;;;;;;12.19;77.37;96899.78;5007428;28;20546;-76
2021/05/21 05:47:51;;;;;;;9.32;1.50;;;;;;;12.00;78.28;96901.78;5013317;28;20092;-76
2021/05/21 05:50:19;;;;;;;7.93;1.05;;;;;;;11.28;79.78;96895.34;4990862;28;20398;-76
2021/05/21 05:52:46;;;;;;;4.57;0.95;;;;;;;11.55;79.22;96900.81;5007038;28;20069;-77
2021/05/21 05:55:13;;;;;;;5.38;1.10;;;;;;;12.16;78.01;96892.13;4991042;28;20577;-77
2021/05/21 05:57:41;;;;;;;9.18;1.70;;;;;;;11.88;77.96;96892.03;4995832;28;20121;-77
2021/05/21 06:00:08;;;;;;;7.65;1.15;;;;;;;11.90;78.86;96891.00;5008600;28;20045;-77
2021/05/21 06:02:53;;;;;;;5.53;1.05;;;;;;;11.94;78.05;96883.84;4708955;27;8899608;-77
2021/05/21 06:06:53;;;;;;;5.68;0.88;;;;;;;11.86;78.36;96888.63;5037688;27;915451;-77
2021/05/21 06:09:50;;;;;;;4.47;1.00;;;;;;;12.00;78.66;96881.69;5041982;28;20059;-77
2021/05/21 06:12:27;;;;;;;3.63;1.00;;;;;;;12.17;77.68;96878.94;5013924;28;20041;-78
2021/05/21 06:15:45;;;;;;;2.50;1.03;;;;;;;11.74;78.97;96888.44;5011533;28;20132;-78
2021/05/21 06:18:54;;;;;;;7.20;1.00;;;;;;;11.87;78.45;96870.25;5050371;28;20044;-78
2021/05/21 06:21:21;;;;;;;6.28;0.75;;;;;;;11.69;78.99;96882.59;5030883;28;20083;-77
2021/05/21 06:23:51;;;;;;;4.20;0.88;;;;;;;11.72;78.88;96874.59;5046795;28;20398;-77
2021/05/21 06:27:24;;;;;;;6.25;0.93;;;;;;;11.76;78.83;96875.25;4999502;28;20063;-77
2021/05/21 06:29:31;;;;;;;3.15;1.05;;;;;;;11.90;78.86;96879.69;5035001;28;20044;-78
2021/05/21 06:31:58;;;;;;;7.95;2.10;;;;;;;12.47;77.12;96870.22;5037822;28;20186;-78
2021/05/21 06:34:42;;;;;;;8.57;1.10;;;;;;;12.24;77.09;96869.78;5048701;28;20137;-77
2021/05/21 06:37:31;;;;;;;10.00;1.02;;;;;;;12.05;78.16;96873.56;5072349;28;20051;-78
2021/05/21 06:40:18;;;;;;;14.07;4.72;;;;;;;12.16;78.59;96865.94;5053911;28;20044;-78
2021/05/21 06:42:50;;;;;;;3.28;0.98;;;;;;;12.34;77.47;96869.25;5058465;28;20059;-78
2021/05/21 06:45:16;;;;;;;3.17;0.88;;;;;;;12.41;78.04;96870.56;5052674;28;20115;-78
2021/05/21 06:47:44;;;;;;;5.55;0.80;;;;;;;12.35;77.51;96871.78;5030051;28;20056;-79
2021/05/21 06:50:11;;;;;;;2.53;0.55;;;;;;;12.50;77.04;96867.41;5042651;28;20487;-78
2021/05/21 06:52:41;;;;;;;3.22;0.75;;;;;;;12.69;76.63;96878.44;5051914;28;20060;-78
2021/05/21 06:55:42;;;;;;;4.18;0.70;;;;;;;12.96;75.96;96875.91;5019205;28;20128;-78
2021/05/21 06:58:10;;;;;;;5.38;0.95;;;;;;;12.76;75.63;96869.28;5031314;28;20060;-78
2021/05/21 07:00:41;;;;;;;5.45;0.90;;;;;;;12.36;75.61;96860.38;5040660;28;20124;-78
2021/05/21 07:03:10;;;;;;;;;;;;;;;12.72;75.62;96873.03;5023026;28;20385;-79
2021/05/21 07:05:45;;;;;;;1.45;0.68;;;;;;;12.37;76.58;96862.06;5043951;28;20015;-79
2021/05/21 07:08:20;;;;;;;6.03;0.90;;;;;;;12.28;77.35;96864.38;5052964;28;20087;-78
2021/05/21 07:10:48;;;;;;;1.90;0.43;;;;;;;12.20;75.80;96863.06;5056628;28;20048;-78
2021/05/21 07:13:17;;;;;;;3.75;0.95;;;;;;;12.58;75.87;96859.91;5052437;28;20052;-78
2021/05/21 07:15:45;;;;;;;5.90;1.30;;;;;;;12.47;76.15;96855.31;5059240;28;20056;-79
2021/05/21 07:18:12;;;;;;;8.30;1.35;;;;;;;12.38;75.88;96855.88;5019675;28;20059;-80
2021/05/21 07:20:45;;;;;;;10.48;1.40;;;;;;;12.84;75.17;96853.09;5017158;28;20581;-76
2021/05/21 07:23:15;;;;;;;11.48;1.58;;;;;;;12.64;75.48;96857.78;5019236;28;20063;-80
2021/05/21 07:25:43;;;;;;;11.55;1.83;;;;;;;12.86;75.11;96845.97;5021174;28;20080;-77
2021/05/21 07:28:40;;;;;;;3.03;0.63;;;;;;;12.75;75.34;96841.41;4980805;28;20130;-81
2021/05/21 07:31:09;;;;;;;3.70;0.65;;;;;;;12.87;74.60;96842.41;4963715;28;20407;-77
2021/05/21 07:34:03;;;;;;;3.33;0.82;;;;;;;12.58;75.97;96839.81;4960593;28;20497;-78
2021/05/21 07:36:35;;;;;;;3.15;0.90;;;;;;;12.95;74.36;96848.03;4973719;28;20580;-79
2021/05/21 07:39:04;;;;;;;2.08;0.77;;;;;;;12.54;75.34;96840.94;4985921;28;20062;-77
2021/05/21 07:41:31;;;;;;;2.58;0.60;;;;;;;12.80;74.11;96835.88;4984657;28;20066;-77
2021/05/21 07:44:09;;;;;;;1.73;0.73;;;;;;;12.74;74.72;96831.88;4980041;28;20045;-79
2021/05/21 07:46:54;;;;;;;3.15;0.52;;;;;;;12.63;75.40;96827.28;4979431;28;20052;-79
2021/05/21 07:49:25;;;;;;;7.40;0.82;;;;;;;13.16;74.60;96824.91;4970304;28;20047;-78
2021/05/21 07:51:58;;;;;;;2.15;0.80;;;;;;;12.66;75.94;96834.13;4955765;28;20066;-81
2021/05/21 07:54:26;;;;;;;2.30;0.60;;;;;;;12.51;75.87;96829.81;4991268;28;20672;-77
2021/05/21 07:57:04;;;;;;;5.03;0.82;;;;;;;13.20;74.70;96821.16;4980571;27;20387;-76
2021/05/21 07:59:31;;;;;;;4.40;0.95;;;;;;;12.90;74.63;96829.16;5015758;28;20056;-76
2021/05/21 08:22:07;;;;;;;3.72;0.80;;;;;;;13.09;75.14;96820.00;5061874;27;20370;-76
2021/05/21 08:24:37;;;;;;;2.78;0.57;;;;;;;12.99;75.49;96825.94;5081421;28;20491;-77
2021/05/21 08:27:08;;;;;;;3.65;0.80;;;;;;;13.18;73.76;96821.25;5044179;28;20502;-77
2021/05/21 08:31:49;;;;;;;6.68;1.00;;;;;;;13.36;74.00;96821.88;5057728;27;20256;-77
2021/05/21 08:34:17;;;;;;;1.77;0.70;;;;;;;13.12;74.37;96819.03;5047793;28;20056;-77
2021/05/21 08:36:50;;;;;;;4.10;0.60;;;;;;;13.17;74.45;96822.19;5006853;28;20141;-77
2021/05/21 08:39:40;;;;;;;1.25;0.70;;;;;;;13.02;76.65;96818.72;4935803;28;20050;-79
2021/05/21 08:43:31;;;;;;;2.85;0.60;;;;;;;14.19;73.05;96818.09;4908792;28;20486;-78
2021/05/21 09:00:30;;;;;;;1.02;0.30;;;;;;;15.16;68.28;96834.94;4901445;27;3741335;-76
2021/05/21 09:07:14;;;;;;;1.55;0.70;;;;;;;14.77;70.99;96830.75;4898845;29;20049;-79
2021/05/21 09:10:38;;;;;;;3.67;0.68;;;;;;;14.80;69.60;96831.34;4838383;28;20064;-78
2021/05/21 09:14:21;;;;;;;4.75;0.85;;;;;;;14.97;70.74;96826.69;4834413;29;20046;-78
2021/05/21 09:17:41;;;;;;;;;;;;;;;;;;;;;
2021/05/21 09:21:19;;;;;;;5.13;0.52;;;;;;;15.89;66.29;96838.38;4898255;28;20054;-78
2021/05/21 09:24:24;;;;;;;3.50;0.63;;;;;;;16.39;66.18;96836.38;4900329;28;20064;-77
2021/05/21 09:27:10;;;;;;;5.60;0.60;;;;;;;15.77;66.32;96835.81;4793395;29;20203;-78
2021/05/21 09:29:53;;;;;;;0.45;0.30;;;;;;;15.17;68.04;96834.84;4889231;28;20052;-77
2021/05/21 09:32:29;;;;;;;1.48;0.63;;;;;;;15.53;68.51;96838.47;4904624;28;20059;-77
2021/05/21 09:35:24;;;;;;;2.42;0.63;;;;;;;16.47;67.25;96834.84;4885800;28;20081;-78
2021/05/21 09:38:01;;;;;;;3.67;0.50;;;;;;;16.77;64.87;96822.94;4856108;29;20422;-77
2021/05/21 09:40:43;;;;;;;4.15;0.55;;;;;;;16.66;62.79;96829.03;4875561;28;20063;-78
2021/05/21 09:43:27;;;;;;;4.93;0.95;;;;;;;17.53;62.23;96822.13;4881728;28;20053;-77
2021/05/21 09:45:54;;;;;;;1.65;0.55;;;;;;;18.12;60.42;96819.88;5024290;28;20051;-77
2021/05/21 09:48:35;;;;;;;1.30;0.98;;;;;;;18.11;59.34;96821.69;5011820;28;20122;-77
2021/05/21 09:51:05;;;;;;;2.00;0.50;;;;;;;18.90;58.33;96828.16;5020890;28;20079;-76
2021/05/21 09:57:34;;;;;;;0.98;0.30;;;;;;;18.78;57.42;96823.09;4997337;28;20056;-78
2021/05/21 10:00:04;;;;;;;1.23;0.50;;;;;;;18.77;57.09;96832.00;5000519;28;20050;-79
2021/05/21 10:02:33;;;;;;;1.45;0.35;;;;;;;18.38;58.36;96820.31;4989346;28;20445;-77
2021/05/21 10:05:03;;;;;;;7.32;0.98;;;;;;;17.21;60.05;96822.91;4989925;28;20109;-77
2021/05/21 10:07:33;;;;;;;4.00;0.50;;;;;;;17.06;59.29;96823.28;5015001;28;20046;-78
2021/05/21 10:10:06;;;;;;;5.57;0.40;;;;;;;16.89;62.04;96828.06;4990074;28;20049;-80
2021/05/21 10:12:45;;;;;;;13.10;0.60;;;;;;;17.06;62.96;96823.28;4980271;28;20041;-82
2021/05/21 10:15:12;;;;;;;3.67;0.40;;;;;;;17.40;62.29;96832.84;5010218;28;20129;-76
2021/05/21 10:17:39;;;;;;;1.42;0.45;;;;;;;17.25;60.87;96834.06;5016289;28;20133;-77
2021/05/21 10:20:08;;;;;;;1.88;0.30;;;;;;;17.33;59.92;96831.63;4991873;28;20042;-75
2021/05/21 10:22:38;;;;;;;2.75;0.30;;;;;;;16.16;62.50;96827.59;5001757;28;20152;-75
2021/05/21 10:25:34;;;;;;;1.35;0.30;;;;;;;16.05;63.81;96836.31;5007682;28;20054;-78
2021/05/21 10:28:08;;;;;;;0.75;0.15;;;;;;;16.68;62.76;96842.94;4993971;28;20042;-78
2021/05/21 10:30:36;;;;;;;2.15;0.32;;;;;;;16.14;63.80;96832.13;4992575;28;20141;-76
2021/05/21 10:33:30;;;;;;;3.40;0.30;;;;;;;16.12;64.56;96847.19;4992029;28;20038;-78
2021/05/21 10:36:19;;;;;;;0.32;0.20;;;;;;;16.08;64.94;96838.69;4993831;28;20072;-78
2021/05/21 10:39:22;;;;;;;2.08;0.40;;;;;;;16.25;63.93;96842.72;5006871;28;20435;-77
2021/05/21 10:43:04;;;;;;;0.75;0.60;;;;;;;16.46;63.47;96842.84;4903034;28;20059;-80
2021/05/21 10:54:29;;;;;;;0.20;0.20;;;;;;;15.50;65.57;96857.91;4759136;29;20198;-78
2021/05/21 10:57:46;;;;;;;;;;;;;;;;;;;;;
2021/05/21 11:04:55;;;;;;;2.35;0.40;;;;;;;15.68;64.77;96842.63;4792901;29;20050;-79
2021/05/21 11:07:55;;;;;;;1.42;0.57;;;;;;;15.71;65.10;96845.00;4826476;29;20069;-77
2021/05/21 11:10:33;;;;;;;2.97;0.75;;;;;;;16.14;63.51;96847.94;4799487;29;20074;-76
2021/05/21 11:13:02;;;;;;;0.80;0.77;;;;;;;16.13;63.54;96848.88;4832927;29;20126;-78
2021/05/21 11:15:34;;;;;;;2.15;0.65;;;;;;;16.63;62.32;96841.59;4835278;29;20072;-76
2021/05/21 11:18:12;;;;;;;1.27;0.50;;;;;;;16.38;62.99;96837.34;4856267;29;20104;-76
2021/05/21 11:21:04;;;;;;;1.00;0.50;;;;;;;17.21;59.96;96840.53;4886999;29;20053;-76
2021/05/21 11:23:40;;;;;;;1.38;0.50;;;;;;;16.94;61.24;96843.53;4874128;29;20052;-75
2021/05/21 11:26:14;;;;;;;0.77;0.38;;;;;;;17.82;57.77;96853.16;4886274;29;20049;-77
2021/05/21 11:28:58;;;;;;;0.47;0.20;;;;;;;18.32;57.24;96849.94;4876948;28;20062;-76
2021/05/21 11:31:29;;;;;;;2.47;0.38;;;;;;;17.20;58.86;96847.59;5015285;28;21160;-76
2021/05/21 11:33:59;;;;;;;0.50;0.50;;;;;;;17.61;60.79;96848.75;5008273;28;20054;-78
2021/05/21 11:36:30;;;;;;;0.55;0.38;;;;;;;16.99;61.88;96844.84;5008237;28;20073;-78
2021/05/21 11:39:01;;;;;;;0.30;0.20;;;;;;;16.87;60.81;96844.97;4981258;28;20160;-78
2021/05/21 11:41:48;;;;;;;1.30;0.57;;;;;;;16.38;63.33;96847.88;4945396;28;20352;-78
2021/05/21 11:45:26;;;;;;;2.25;0.30;;;;;;;16.56;62.63;96841.19;4809146;29;20138;-78
2021/05/21 11:48:41;;;;;;;1.33;0.20;;;;;;;16.41;62.03;96835.31;4839518;29;20049;-77
2021/05/21 11:51:19;;;;;;;0.20;0.20;;;;;;;16.26;61.51;96835.66;4815679;29;20099;-77
2021/05/21 11:53:51;;;;;;;0.90;0.30;;;;;;;16.10;62.72;96836.78;4865733;29;20498;-78
2021/05/21 11:56:39;;;;;;;1.50;0.30;;;;;;;15.97;63.54;96836.00;4797606;29;20457;-78
2021/05/21 11:59:10;;;;;;;3.53;0.35;;;;;;;15.79;63.00;96839.16;4856941;29;20061;-77
2021/05/21 12:02:05;;;;;;;1.02;0.25;;;;;;;16.52;60.60;96837.13;4871546;28;20069;-76
2021/05/21 12:04:34;;;;;;;0.90;0.50;;;;;;;15.95;62.77;96845.00;4912008;29;20062;-76
2021/05/21 12:07:02;;;;;;;0.50;0.32;;;;;;;16.17;63.26;96831.88;4955613;28;20055;-76
2021/05/21 12:09:32;;;;;;;2.22;0.43;;;;;;;16.49;62.46;96843.47;4934811;28;20166;-77
2021/05/21 12:12:01;;;;;;;0.20;0.10;;;;;;;16.75;61.59;96838.00;4938194;28;20054;-76
2021/05/21 12:14:29;;;;;;;1.02;0.20;;;;;;;16.84;62.04;96832.03;4947045;28;20142;-77
2021/05/21 12:16:58;;;;;;;0.85;0.45;;;;;;;17.04;61.03;96839.22;4924750;28;20043;-76
2021/05/21 12:19:26;;;;;;;0.30;0.20;;;;;;;17.18;60.00;96833.69;4943743;28;20051;-76
2021/05/21 12:21:55;;;;;;;0.47;0.20;;;;;;;17.19;60.15;96829.25;4929003;28;20586;-78
2021/05/21 12:24:25;;;;;;;1.45;0.30;;;;;;;17.25;60.75;96841.97;4968678;28;20140;-77
2021/05/21 12:26:54;;;;;;;2.17;0.43;;;;;;;16.95;61.71;96832.88;4979392;28;20477;-76
2021/05/21 12:29:25;;;;;;;0.20;0.20;;;;;;;16.53;62.50;96833.53;4991140;28;20054;-74
2021/05/21 12:31:58;;;;;;;0.93;0.30;;;;;;;16.47;61.65;96832.22;4987472;28;20082;-78
2021/05/21 12:34:33;;;;;;;2.17;0.73;;;;;;;16.27;61.97;96832.03;4963009;28;20377;-77
2021/05/21 12:37:10;;;;;;;0.85;0.25;;;;;;;16.41;63.27;96835.31;4947328;28;20046;-78
2021/05/21 12:40:48;;;;;;;1.02;0.50;;;;;;;16.79;61.58;96823.63;4823022;29;20195;-80
2021/05/21 12:43:16;;;;;;;0.68;0.25;;;;;;;17.05;59.55;96817.16;4894186;29;20054;-77
2021/05/21 12:46:13;;;;;;;0.93;0.25;;;;;;;16.56;60.90;96822.75;4924038;29;20107;-74
2021/05/21 12:48:43;;;;;;;1.52;0.40;;;;;;;16.80;61.83;96833.22;4882277;29;20466;-77
2021/05/21 12:51:20;;;;;;;0.47;0.38;;;;;;;16.42;61.51;96829.09;4900202;29;20092;-75
2021/05/21 12:53:48;;;;;;;1.25;0.30;;;;;;;16.26;61.60;96825.13;4901485;29;20049;-77
2021/05/21 12:56:31;;;;;;;0.90;0.47;;;;;;;16.56;62.30;96822.75;4938824;28;20039;-77
2021/05/21 12:59:03;;;;;;;1.48;0.30;;;;;;;16.35;61.62;96825.25;4924734;28;20063;-77
2021/05/21 13:01:36;;;;;;;0.30;0.30;;;;;;;17.00;60.53;96837.78;4931462;28;20079;-76
2021/05/21 13:06:38;;;;;;;0.40;0.20;;;;;;;17.11;60.77;96829.03;5049176;27;20417;-75
2021/05/21 13:13:01;;;;;;;0.57;0.20;;;;;;;17.57;61.02;96842.00;5037792;28;20504;-77
2021/05/21 13:15:42;;;;;;;1.13;0.50;;;;;;;17.92;59.02;96844.47;4997373;28;20588;-78
2021/05/21 13:18:26;;;;;;;0.95;0.28;;;;;;;17.72;58.42;96839.00;5017092;28;20059;-76
2021/05/21 13:20:53;;;;;;;0.32;0.08;;;;;;;17.41;57.92;96835.31;5015178;28;20119;-78
2021/05/21 13:23:28;;;;;;;2.40;0.20;;;;;;;18.32;56.29;96836.72;5000494;28;20455;-77
2021/05/21 13:26:03;;;;;;;0.55;0.20;;;;;;;18.26;54.81;96838.06;5012413;28;20152;-76
2021/05/21 13:28:47;;;;;;;2.92;0.20;;;;;;;17.78;56.38;96833.25;5018921;28;20053;-79
2021/05/21 13:31:29;;;;;;;2.72;0.30;;;;;;;17.09;58.57;96823.03;5029945;28;20048;-80
2021/05/21 13:33:56;;;;;;;0.68;0.30;;;;;;;16.59;59.71;96833.09;5017727;28;20120;-76
2021/05/21 13:36:25;;;;;;;1.05;0.20;;;;;;;16.79;59.78;96831.53;5014183;28;20073;-80
2021/05/21 13:38:52;;;;;;;0.50;0.20;;;;;;;17.23;58.12;96831.53;5032504;28;20416;-77
2021/05/21 13:41:23;;;;;;;0.82;0.20;;;;;;;17.76;58.02;96824.59;5006535;28;20067;-76
2021/05/21 13:44:19;;;;;;;0.63;0.40;;;;;;;17.84;56.69;96823.97;5027650;28;20045;-78
2021/05/21 13:46:46;;;;;;;2.35;0.20;;;;;;;16.93;57.66;96824.22;5024926;28;20049;-76
2021/05/21 13:49:23;;;;;;;2.83;0.20;;;;;;;17.40;57.32;96823.13;4998162;28;20060;-76
2021/05/21 13:51:59;;;;;;;1.67;0.25;;;;;;;18.12;55.34;96806.69;5027741;28;20049;-76
2021/05/21 13:54:28;;;;;;;1.13;0.20;;;;;;;18.45;54.13;96816.22;5021656;28;20504;-77
2021/05/21 13:56:55;;;;;;;0.63;0.40;;;;;;;18.24;56.20;96817.03;5002189;28;20085;-76
2021/05/21 13:59:23;;;;;;;0.20;0.13;;;;;;;17.36;58.86;96813.75;5019617;28;20041;-76
2021/05/21 14:01:56;;;;;;;5.68;0.55;;;;;;;17.15;58.69;96810.19;5021161;28;20061;-78
2021/05/21 14:04:26;;;;;;;0.43;0.40;;;;;;;17.02;60.25;96802.41;5015153;28;20533;-76